createdAt,value
2022-10-02T00:02:18.252Z,12.75
2022-10-02T00:05:03.715Z,12.73
2022-10-02T00:07:56.022Z,12.74
2022-10-02T00:10:39.295Z,12.72
2022-10-02T00:13:08.706Z,12.73
2022-10-02T00:15:42.045Z,12.75
2022-10-02T00:18:14.943Z,12.75
2022-10-02T00:21:08.840Z,12.75
2022-10-02T00:23:46.310Z,12.75
2022-10-02T00:26:23.239Z,12.72
2022-10-02T00:29:11.538Z,12.72
2022-10-02T00:31:47.661Z,12.71
2022-10-02T00:35:11.830Z,12.70
2022-10-02T00:38:16.766Z,12.71
2022-10-02T00:41:10.356Z,12.69
2022-10-02T00:44:04.874Z,12.67
2022-10-02T00:46:38.021Z,12.65
2022-10-02T00:49:21.176Z,12.64
2022-10-02T00:52:16.092Z,12.62
2022-10-02T00:55:07.705Z,12.60
2022-10-02T00:57:43.490Z,12.57
2022-10-02T01:00:14.751Z,12.55
2022-10-02T01:03:08.888Z,12.51
2022-10-02T01:05:36.113Z,12.49
2022-10-02T01:08:03.076Z,12.44
2022-10-02T01:10:30.072Z,12.40
2022-10-02T01:12:58.210Z,12.35
2022-10-02T01:15:31.096Z,12.33
2022-10-02T01:17:58.403Z,12.29
2022-10-02T01:20:35.690Z,12.28
2022-10-02T01:23:18.116Z,12.27
2022-10-02T01:25:45.483Z,12.26
2022-10-02T01:28:12.791Z,12.24
2022-10-02T01:30:43.207Z,12.23
2022-10-02T01:33:12.611Z,12.20
2022-10-02T01:35:40.196Z,12.19
2022-10-02T01:38:11.084Z,12.17
2022-10-02T01:40:40.140Z,12.15
2022-10-02T01:43:17.524Z,12.11
2022-10-02T01:45:58.571Z,12.08
2022-10-02T01:48:42.066Z,12.05
2022-10-02T01:51:30.244Z,12.01
2022-10-02T01:54:18.310Z,11.98
2022-10-02T01:57:01.395Z,11.95
2022-10-02T01:59:37.122Z,11.93
2022-10-02T02:02:24.931Z,11.90
2022-10-02T02:05:18.847Z,11.89
2022-10-02T02:08:03.565Z,11.90
2022-10-02T02:10:46.574Z,11.87
2022-10-02T02:13:33.986Z,11.84
2022-10-02T02:16:10.679Z,11.82
2022-10-02T02:18:50.652Z,11.79
2022-10-02T02:21:28.749Z,11.78
2022-10-02T02:23:57.929Z,11.75
2022-10-02T02:26:25.857Z,11.74
2022-10-02T02:28:58.353Z,11.70
2022-10-02T02:31:31.131Z,11.70
2022-10-02T02:34:01.015Z,11.66
2022-10-02T02:36:35.698Z,11.65
2022-10-02T02:39:10.830Z,11.60
2022-10-02T02:41:55.919Z,11.56
2022-10-02T02:44:28.725Z,11.54
2022-10-02T02:47:04.287Z,11.51
2022-10-02T02:49:59.617Z,11.50
2022-10-02T02:52:33.522Z,11.55
2022-10-02T02:55:20.251Z,11.58
2022-10-02T02:57:57.365Z,11.62
2022-10-02T03:00:25.501Z,11.63
2022-10-02T03:02:54.647Z,11.65
2022-10-02T03:05:24.268Z,11.65
2022-10-02T03:08:00.124Z,11.62
2022-10-02T03:10:29.847Z,11.59
2022-10-02T03:13:18.117Z,11.59
2022-10-02T03:16:22.102Z,11.57
2022-10-02T03:19:16.282Z,11.53
2022-10-02T03:21:54.878Z,11.49
2022-10-02T03:24:39.615Z,11.45
2022-10-02T03:27:15.641Z,11.39
2022-10-02T03:30:00.129Z,11.33
2022-10-02T03:32:28.312Z,11.27
2022-10-02T03:34:57.221Z,11.22
2022-10-02T03:37:25.904Z,11.17
2022-10-02T03:39:52.928Z,11.13
2022-10-02T03:42:26.290Z,11.09
2022-10-02T03:44:52.962Z,11.05
2022-10-02T03:47:19.555Z,11.02
2022-10-02T03:49:46.729Z,11.00
2022-10-02T03:52:16.956Z,10.99
2022-10-02T03:54:44.322Z,10.96
2022-10-02T03:57:22.982Z,10.94
2022-10-02T04:00:03.862Z,10.91
2022-10-02T04:02:37.639Z,10.88
2022-10-02T04:05:26.016Z,10.87
2022-10-02T04:07:57.504Z,10.86
2022-10-02T04:10:54.887Z,10.87
2022-10-02T04:13:35.425Z,10.83
2022-10-02T04:16:14.545Z,10.82
2022-10-02T04:18:57.402Z,10.81
2022-10-02T04:21:58.803Z,10.77
2022-10-02T04:24:31.896Z,10.74
2022-10-02T04:27:17.517Z,10.71
2022-10-02T04:29:51.811Z,10.69
2022-10-02T04:32:27.642Z,10.70
2022-10-02T04:34:54.855Z,10.75
2022-10-02T04:37:32.953Z,10.83
2022-10-02T04:40:39.152Z,10.89
2022-10-02T04:43:24.048Z,10.95
2022-10-02T04:46:09.824Z,10.97
2022-10-02T04:48:56.753Z,10.98
2022-10-02T04:52:01.109Z,10.98
2022-10-02T04:54:30.728Z,10.99
2022-10-02T04:57:02.261Z,11.00
2022-10-02T04:59:38.049Z,11.02
2022-10-02T05:02:27.360Z,11.02
2022-10-02T05:05:12.586Z,11.02
2022-10-02T05:08:06.079Z,11.01
2022-10-02T05:11:14.474Z,10.99
2022-10-02T05:13:55.825Z,10.99
2022-10-02T05:16:42.788Z,10.96
2022-10-02T05:19:33.685Z,10.92
2022-10-02T05:22:12.212Z,10.85
2022-10-02T05:25:00.350Z,10.80
2022-10-02T05:27:50.282Z,10.72
2022-10-02T05:30:19.528Z,10.66
2022-10-02T05:33:04.746Z,10.59
2022-10-02T05:36:00.710Z,10.54
2022-10-02T05:38:39.159Z,10.51
2022-10-02T05:41:18.122Z,10.48
2022-10-02T05:44:02.696Z,10.43
2022-10-02T05:46:42.391Z,10.39
2022-10-02T05:49:16.592Z,10.38
2022-10-02T05:51:59.440Z,10.36
2022-10-02T05:54:47.485Z,10.34
2022-10-02T05:57:32.062Z,10.32
2022-10-02T06:00:24.890Z,10.30
2022-10-02T06:03:00.509Z,10.33
2022-10-02T06:05:35.657Z,10.36
2022-10-02T06:08:05.917Z,10.40
2022-10-02T06:10:41.016Z,10.42
2022-10-02T06:13:46.365Z,10.40
2022-10-02T06:16:28.726Z,10.44
2022-10-02T06:19:01.777Z,10.43
2022-10-02T06:21:52.063Z,10.43
2022-10-02T06:24:34.687Z,10.47
2022-10-02T06:27:10.217Z,10.51
2022-10-02T06:29:43.911Z,10.54
2022-10-02T06:32:22.532Z,10.57
2022-10-02T06:34:50.316Z,10.62
2022-10-02T06:37:26.345Z,10.63
2022-10-02T06:40:18.716Z,10.66
2022-10-02T06:43:27.271Z,10.69
2022-10-02T06:46:08.693Z,10.73
2022-10-02T06:49:06.506Z,10.74
2022-10-02T06:52:02.087Z,10.79
2022-10-02T06:54:50.500Z,10.85
2022-10-02T06:57:48.754Z,10.90
2022-10-02T07:00:21.413Z,10.95
2022-10-02T07:03:29.861Z,10.99
2022-10-02T07:06:14.623Z,11.02
2022-10-02T07:09:04.547Z,11.04
2022-10-02T07:11:49.618Z,11.07
2022-10-02T07:14:54.859Z,11.10
2022-10-02T07:17:59.146Z,11.13
2022-10-02T07:20:30.097Z,11.17
2022-10-02T07:23:10.041Z,11.23
2022-10-02T07:25:39.906Z,11.25
2022-10-02T07:28:17.709Z,11.25
2022-10-02T07:31:08.410Z,11.30
2022-10-02T07:34:08.215Z,11.33
2022-10-02T07:36:53.200Z,11.31
2022-10-02T07:39:31.471Z,11.29
2022-10-02T07:42:12.274Z,11.30
2022-10-02T07:45:16.558Z,11.36
2022-10-02T07:48:00.465Z,11.41
2022-10-02T07:50:33.024Z,11.49
2022-10-02T07:53:05.866Z,11.66
2022-10-02T07:55:33.838Z,11.95
2022-10-02T07:58:06.318Z,12.10
2022-10-02T08:00:40.614Z,12.09
2022-10-02T08:03:13.030Z,12.07
2022-10-02T08:05:44.682Z,12.09
2022-10-02T08:08:17.455Z,12.06
2022-10-02T08:10:47.641Z,12.02
2022-10-02T08:13:20.695Z,12.05
2022-10-02T08:15:54.452Z,12.03
2022-10-02T08:18:34.756Z,12.01
2022-10-02T08:21:05.505Z,12.01
2022-10-02T08:23:45.203Z,12.04
2022-10-02T08:26:37.315Z,12.18
2022-10-02T08:29:10.150Z,12.30
2022-10-02T08:31:37.194Z,12.44
2022-10-02T08:34:19.250Z,12.57
2022-10-02T08:36:51.795Z,12.65
2022-10-02T08:39:50.725Z,12.78
2022-10-02T08:42:45.630Z,13.03
2022-10-02T08:45:27.497Z,13.49
2022-10-02T08:48:06.432Z,13.74
2022-10-02T08:50:48.396Z,13.94
2022-10-02T08:53:29.974Z,14.01
2022-10-02T08:56:03.364Z,13.95
2022-10-02T08:58:49.987Z,14.10
2022-10-02T09:01:25.707Z,14.15
2022-10-02T09:04:28.526Z,14.24
2022-10-02T09:07:17.173Z,14.34
2022-10-02T09:09:53.951Z,14.53
2022-10-02T09:12:42.154Z,14.62
2022-10-02T09:15:39.246Z,14.72
2022-10-02T09:18:42.738Z,14.84
2022-10-02T09:21:11.593Z,14.95
2022-10-02T09:24:27.727Z,15.00
2022-10-02T09:27:12.520Z,15.14
2022-10-02T09:30:10.286Z,15.34
2022-10-02T09:32:49.664Z,15.57
2022-10-02T09:35:33.182Z,15.75
2022-10-02T09:38:30.159Z,15.76
2022-10-02T09:41:28.030Z,15.61
2022-10-02T09:44:19.774Z,15.52
2022-10-02T09:47:21.558Z,15.53
2022-10-02T09:50:06.739Z,15.50
2022-10-02T09:52:54.113Z,15.47
2022-10-02T09:55:43.031Z,15.42
2022-10-02T09:58:28.376Z,15.27
2022-10-02T10:01:07.249Z,15.23
2022-10-02T10:03:52.712Z,15.23
2022-10-02T10:06:28.833Z,15.25
2022-10-02T10:09:08.925Z,15.50
2022-10-02T10:11:56.627Z,15.87
2022-10-02T10:14:56.695Z,16.35
2022-10-02T10:17:39.358Z,16.66
2022-10-02T10:20:43.607Z,17.12
2022-10-02T10:23:25.656Z,17.38
2022-10-02T10:26:53.972Z,17.11
2022-10-02T10:29:58.133Z,17.27
2022-10-02T10:32:42.561Z,17.39
2022-10-02T10:35:38.832Z,17.47
2022-10-02T10:38:51.451Z,17.55
2022-10-02T10:41:39.935Z,17.63
2022-10-02T10:44:39.518Z,17.56
2022-10-02T10:47:23.964Z,17.53
2022-10-02T10:50:04.498Z,17.63
2022-10-02T10:53:04.508Z,17.84
2022-10-02T10:56:18.261Z,18.16
2022-10-02T10:59:16.759Z,18.47
2022-10-02T11:02:00.914Z,18.90
2022-10-02T11:04:59.087Z,19.17
2022-10-02T11:07:41.240Z,19.43
2022-10-02T11:10:31.235Z,19.74
2022-10-02T11:13:10.017Z,19.89
2022-10-02T11:15:39.917Z,20.30
2022-10-02T11:18:24.579Z,20.70
2022-10-02T11:21:10.871Z,20.82
2022-10-02T11:23:59.052Z,21.04
2022-10-02T11:26:34.984Z,20.82
2022-10-02T11:29:25.910Z,21.07
2022-10-02T11:32:26.630Z,21.33
2022-10-02T11:35:21.218Z,21.04
2022-10-02T11:38:09.890Z,20.32
2022-10-02T11:41:14.296Z,19.79
2022-10-02T11:44:09.186Z,19.46
2022-10-02T11:46:53.971Z,19.22
2022-10-02T11:49:34.758Z,18.96
2022-10-02T11:52:30.263Z,18.88
2022-10-02T11:55:11.548Z,18.84
2022-10-02T11:57:45.796Z,18.97
2022-10-02T12:00:34.535Z,19.08
2022-10-02T12:03:17.095Z,19.23
2022-10-02T12:06:03.247Z,19.56
2022-10-02T12:08:49.338Z,19.88
2022-10-02T12:11:23.418Z,19.97
2022-10-02T12:14:09.696Z,19.74
2022-10-02T12:16:45.698Z,19.66
2022-10-02T12:19:38.878Z,19.54
2022-10-02T12:22:43.070Z,19.31
2022-10-02T12:26:01.210Z,19.12
2022-10-02T12:28:46.645Z,19.04
2022-10-02T12:31:45.635Z,18.91
2022-10-02T12:34:40.339Z,18.87
2022-10-02T12:37:20.831Z,18.83
2022-10-02T12:39:59.573Z,18.86
2022-10-02T12:42:35.311Z,18.95
2022-10-02T12:45:21.877Z,19.32
2022-10-02T12:47:58.510Z,19.23
2022-10-02T12:50:53.812Z,19.23
2022-10-02T12:53:20.402Z,19.36
2022-10-02T12:56:25.684Z,19.78
2022-10-02T12:59:11.404Z,19.36
2022-10-02T13:02:59.723Z,19.65
2022-10-02T13:05:55.389Z,23.18
2022-10-02T13:09:08.158Z,25.44
2022-10-02T13:12:07.020Z,25.39
2022-10-02T13:15:02.138Z,24.98
2022-10-02T13:17:31.880Z,25.06
2022-10-02T13:20:28.638Z,23.94
2022-10-02T13:23:25.513Z,24.16
2022-10-02T13:26:26.678Z,26.13
2022-10-02T13:29:14.739Z,28.68
2022-10-02T13:32:06.381Z,28.48
2022-10-02T13:35:04.310Z,25.28
2022-10-02T13:37:54.154Z,23.38
2022-10-02T13:40:26.853Z,22.04
2022-10-02T13:43:38.662Z,21.05
2022-10-02T13:46:08.513Z,20.52
2022-10-02T13:48:40.833Z,20.28
2022-10-02T13:51:15.699Z,23.78
2022-10-02T13:54:14.701Z,26.38
2022-10-02T13:56:52.083Z,24.83
2022-10-02T13:59:33.830Z,23.28
2022-10-02T14:02:15.219Z,22.16
2022-10-02T14:04:47.642Z,21.46
2022-10-02T14:07:26.386Z,20.62
2022-10-02T14:10:28.710Z,20.24
2022-10-02T14:13:12.147Z,19.71
2022-10-02T14:15:57.481Z,19.32
2022-10-02T14:19:01.145Z,18.93
2022-10-02T14:21:51.156Z,18.68
2022-10-02T14:25:03.901Z,18.56
2022-10-02T14:28:02.452Z,18.54
2022-10-02T14:30:52.908Z,18.43
2022-10-02T14:33:38.468Z,18.44
2022-10-02T14:36:13.935Z,18.44
2022-10-02T14:39:05.162Z,18.38
2022-10-02T14:42:09.661Z,18.30
2022-10-02T14:44:46.131Z,18.25
2022-10-02T14:47:15.422Z,18.18
2022-10-02T14:50:16.759Z,18.14
2022-10-02T14:53:13.084Z,18.06
2022-10-02T14:55:58.215Z,18.01
2022-10-02T14:59:02.374Z,17.90
2022-10-02T15:01:30.037Z,17.88
2022-10-02T15:04:31.907Z,17.86
2022-10-02T15:07:08.148Z,17.80
2022-10-02T15:10:09.709Z,17.77
2022-10-02T15:12:36.572Z,17.82
2022-10-02T15:15:16.421Z,17.82
2022-10-02T15:18:20.304Z,17.84
2022-10-02T15:20:59.739Z,17.86
2022-10-02T15:23:45.392Z,17.87
2022-10-02T15:26:14.732Z,17.98
2022-10-02T15:29:05.976Z,18.03
2022-10-02T15:31:44.380Z,18.05
2022-10-02T15:34:20.000Z,18.02
2022-10-02T15:37:00.642Z,17.96
2022-10-02T15:39:46.903Z,17.94
2022-10-02T15:42:27.672Z,17.91
2022-10-02T15:45:13.713Z,17.84
2022-10-02T15:48:06.768Z,17.66
2022-10-02T15:50:36.473Z,17.55
2022-10-02T15:53:05.704Z,17.54
2022-10-02T15:55:42.636Z,17.46
2022-10-02T15:58:19.531Z,17.42
2022-10-02T16:01:09.370Z,17.36
2022-10-02T16:03:53.621Z,17.35
2022-10-02T16:06:39.283Z,17.32
2022-10-02T16:09:37.135Z,17.31
2022-10-02T16:12:31.985Z,17.39
2022-10-02T16:15:13.227Z,17.46
2022-10-02T16:17:59.527Z,17.35
2022-10-02T16:20:26.187Z,17.32
2022-10-02T16:23:25.333Z,17.19
2022-10-02T16:26:15.702Z,17.12
2022-10-02T16:28:54.871Z,17.11
2022-10-02T16:31:43.077Z,17.02
2022-10-02T16:34:37.295Z,16.99
2022-10-02T16:37:19.043Z,16.95
2022-10-02T16:39:54.769Z,16.94
2022-10-02T16:42:50.905Z,16.88
2022-10-02T16:45:40.692Z,16.85
2022-10-02T16:48:17.954Z,16.85
2022-10-02T16:50:53.441Z,16.82
2022-10-02T16:53:37.190Z,16.80
2022-10-02T16:56:21.240Z,16.78
2022-10-02T16:59:01.775Z,16.79
2022-10-02T17:01:53.356Z,16.77
2022-10-02T17:05:13.151Z,16.68
2022-10-02T17:08:07.672Z,16.64
2022-10-02T17:10:46.474Z,16.59
2022-10-02T17:13:29.525Z,16.53
2022-10-02T17:16:09.198Z,16.47
2022-10-02T17:19:00.216Z,16.44
2022-10-02T17:21:39.263Z,16.42
2022-10-02T17:24:50.572Z,16.37
2022-10-02T17:27:35.537Z,16.31
2022-10-02T17:30:24.573Z,16.27
2022-10-02T17:33:13.748Z,16.26
2022-10-02T17:35:46.535Z,16.26
2022-10-02T17:38:29.260Z,16.23
2022-10-02T17:41:14.890Z,16.19
2022-10-02T17:44:00.531Z,16.16
2022-10-02T17:46:55.194Z,16.12
2022-10-02T17:49:50.335Z,16.12
2022-10-02T17:52:45.547Z,16.11
2022-10-02T17:55:57.354Z,16.07
2022-10-02T17:58:39.632Z,16.00
2022-10-02T18:01:24.781Z,15.97
2022-10-02T18:04:22.294Z,15.92
2022-10-02T18:07:41.708Z,15.93
2022-10-02T18:10:24.352Z,15.93
2022-10-02T18:12:55.643Z,15.91
2022-10-02T18:16:00.078Z,15.89
2022-10-02T18:18:50.938Z,15.89
2022-10-02T18:22:27.217Z,15.86
2022-10-02T18:25:19.257Z,15.82
2022-10-02T18:28:02.911Z,15.77
2022-10-02T18:30:58.807Z,15.74
2022-10-02T18:33:56.959Z,15.71
2022-10-02T18:36:50.699Z,15.68
2022-10-02T18:39:30.323Z,15.68
2022-10-02T18:42:16.927Z,15.69
2022-10-02T18:44:48.636Z,15.70
2022-10-02T18:47:52.730Z,15.71
2022-10-02T18:50:28.978Z,15.74
2022-10-02T18:53:43.364Z,15.76
2022-10-02T18:56:14.741Z,15.76
2022-10-02T18:58:47.458Z,15.76
2022-10-02T19:01:29.542Z,15.77
2022-10-02T19:04:30.890Z,15.78
2022-10-02T19:07:17.711Z,15.77
2022-10-02T19:09:44.755Z,15.78
2022-10-02T19:12:23.462Z,15.77
2022-10-02T19:14:56.175Z,15.77
2022-10-02T19:17:24.184Z,15.76
2022-10-02T19:19:51.281Z,15.76
2022-10-02T19:22:26.371Z,15.75
2022-10-02T19:24:58.038Z,15.72
2022-10-02T19:27:31.278Z,15.70
2022-10-02T19:30:03.971Z,15.70
2022-10-02T19:32:32.637Z,15.68
2022-10-02T19:35:05.629Z,15.67
2022-10-02T19:37:34.963Z,15.66
2022-10-02T19:40:04.070Z,15.65
2022-10-02T19:42:39.516Z,15.65
2022-10-02T19:45:22.836Z,15.65
2022-10-02T19:47:57.365Z,15.66
2022-10-02T19:51:12.159Z,15.66
2022-10-02T19:53:50.830Z,15.65
2022-10-02T19:56:32.079Z,15.64
2022-10-02T19:59:11.448Z,15.62
2022-10-02T20:01:43.919Z,15.60
2022-10-02T20:04:17.670Z,15.57
2022-10-02T20:06:53.084Z,15.52
2022-10-02T20:09:34.264Z,15.52
2022-10-02T20:12:06.622Z,15.52
2022-10-02T20:14:42.371Z,15.54
2022-10-02T20:17:10.939Z,15.53
2022-10-02T20:19:43.830Z,15.54
2022-10-02T20:22:24.172Z,15.54
2022-10-02T20:25:02.220Z,15.53
2022-10-02T20:27:38.903Z,15.52
2022-10-02T20:30:17.306Z,15.48
2022-10-02T20:32:53.214Z,15.44
2022-10-02T20:35:37.672Z,15.41
2022-10-02T20:38:15.677Z,15.36
2022-10-02T20:40:48.430Z,15.32
2022-10-02T20:43:20.202Z,15.29
2022-10-02T20:45:58.658Z,15.30
2022-10-02T20:49:07.631Z,15.32
2022-10-02T20:51:43.360Z,15.28
2022-10-02T20:54:17.949Z,15.26
2022-10-02T20:57:25.104Z,15.24
2022-10-02T21:00:17.059Z,15.24
2022-10-02T21:03:22.348Z,15.25
2022-10-02T21:06:22.100Z,15.28
2022-10-02T21:09:04.000Z,15.29
2022-10-02T21:12:27.689Z,15.29
2022-10-02T21:15:12.949Z,15.28
2022-10-02T21:17:58.268Z,15.24
2022-10-02T21:20:49.338Z,15.23
2022-10-02T21:23:36.333Z,15.19
2022-10-02T21:26:27.134Z,15.17
2022-10-02T21:29:12.622Z,15.15
2022-10-02T21:31:48.365Z,15.15
2022-10-02T21:34:41.792Z,15.14
2022-10-02T21:37:36.023Z,15.11
2022-10-02T21:43:19.255Z,15.11
2022-10-02T21:46:18.956Z,15.09
2022-10-02T21:49:27.352Z,15.10
2022-10-02T21:52:09.547Z,15.09
2022-10-02T21:55:05.909Z,15.08
2022-10-02T21:58:17.294Z,15.06
2022-10-02T22:01:18.321Z,15.06
2022-10-02T22:04:03.565Z,15.04
2022-10-02T22:06:39.689Z,15.07
2022-10-02T22:09:23.278Z,15.09
2022-10-02T22:12:01.146Z,15.09
2022-10-02T22:14:33.649Z,15.09
2022-10-02T22:17:12.340Z,15.09
2022-10-02T22:20:00.122Z,15.04
2022-10-02T22:22:43.297Z,14.98
2022-10-02T22:25:37.677Z,14.93
2022-10-02T22:28:20.681Z,14.90
2022-10-02T22:30:50.280Z,14.89
2022-10-02T22:33:55.348Z,14.85
2022-10-02T22:36:27.894Z,14.82
2022-10-02T22:39:15.717Z,14.80
2022-10-02T22:42:20.684Z,14.79
2022-10-02T22:45:01.917Z,14.79
2022-10-02T22:48:14.024Z,14.79
2022-10-02T22:51:23.863Z,14.79
2022-10-02T22:54:59.178Z,14.78
2022-10-02T23:02:24.332Z,14.74
2022-10-02T23:05:45.972Z,14.73
2022-10-02T23:09:17.571Z,14.70
2022-10-02T23:15:49.930Z,14.68
2022-10-02T23:18:58.175Z,14.66
2022-10-02T23:21:31.532Z,14.65
2022-10-02T23:24:18.520Z,14.64
2022-10-02T23:27:17.627Z,14.65
2022-10-02T23:29:50.933Z,14.64
2022-10-02T23:32:38.382Z,14.63
2022-10-02T23:35:31.891Z,14.63
2022-10-02T23:38:24.500Z,14.62
2022-10-02T23:41:37.234Z,14.63
2022-10-02T23:44:17.479Z,14.65
2022-10-02T23:47:09.093Z,14.64
2022-10-02T23:49:41.576Z,14.65
2022-10-02T23:52:14.534Z,14.64
2022-10-02T23:54:56.470Z,14.64
2022-10-02T23:57:41.242Z,14.65
